Chalk, Texas
Current Conditions -  °F | °C
As of 6:53 AM on Friday 31 Oct 2014 (Local Time) from KCDS Reporting Station
Clear Clear  
Wind Chill: 40°   Ceiling: Unl
Heat Index: 44°   Visibility: 10mi
Dew Point: 32°   Wind: 7mph
Humidity: 63%   Direction: 320°NW
Pressure: 30.4"   Gusts: NA
Location:  33.87°N, 100.22°W
Report Text: KCDS 311153Z AUTO 32006KT 10SM CLR 07/00 A3040 RMK AO2 SLP284 T00670000 10117 20061 53017
Loading
Personal Weather Stations






























Interactive Weather Map New forecast layout! Learn more

10-Day Weather Forecast

Advertisements
Track Severe Weather on mobile